| time (UTC) | temp F | wind direction | speed MPH | gust MPH | rain 1hr in | rain 24hr in | rain mn in | humidity % | barometer mb |
| 20260509033639 | 54 | 278 | 0.0 | 0.0 | 0.00 | 0.38 | 0.38 | 99 | 1009.5 |
| 20260509033136 | 54 | 263 | 0.0 | 0.0 | 0.00 | 0.38 | 0.38 | 99 | 1009.4 |
| 20260509032634 | 54 | 279 | 0.0 | 0.0 | 0.00 | 0.38 | 0.38 | 99 | 1009.5 |
| 20260509032130 | 54 | 273 | 0.0 | 0.0 | 0.00 | 0.38 | 0.38 | 99 | 1009.3 |
| 20260509031628 | 54 | 277 | 0.0 | 0.0 | 0.00 | 0.38 | 0.38 | 99 | 1009.5 |
| 20260509031125 | 54 | 269 | 1.0 | 1.0 | 0.00 | 0.38 | 0.38 | 99 | 1009.4 |
| 20260509030624 | 54 | 269 | 2.0 | 2.0 | 0.00 | 0.38 | 0.38 | 99 | 1009.5 |
| 20260509030120 | 54 | 280 | 0.0 | 0.0 | 0.00 | 0.38 | 0.38 | 99 | 1009.5 |
| 20260509025616 | 54 | 269 | 1.0 | 1.0 | 0.00 | 0.38 | 0.38 | 99 | 1009.5 |
| 20260509025112 | 53 | 268 | 1.0 | 1.0 | 0.00 | 0.38 | 0.38 | 99 | 1009.3 |
| 20260509024608 | 54 | 268 | 0.0 | 0.0 | 0.00 | 0.38 | 0.38 | 99 | 1009.4 |
| 20260509024104 | 53 | 266 | 2.0 | 2.0 | 0.00 | 0.38 | 0.38 | 99 | 1009.5 |
| 20260509023602 | 53 | 246 | 1.0 | 2.0 | 0.00 | 0.38 | 0.38 | 99 | 1009.7 |
| 20260509023059 | 54 | 276 | 1.0 | 1.0 | 0.00 | 0.38 | 0.38 | 99 | 1009.6 |
| 20260509022555 | 53 | 266 | 1.0 | 1.0 | 0.00 | 0.38 | 0.38 | 99 | 1009.3 |
| 20260509022053 | 54 | 276 | 0.0 | 0.0 | 0.00 | 0.38 | 0.38 | 99 | 1009.4 |
| 20260509021550 | 54 | 278 | 0.0 | 0.0 | 0.00 | 0.38 | 0.38 | 99 | 1009.4 |
| 20260509021047 | 54 | 268 | 2.0 | 2.0 | 0.00 | 0.38 | 0.38 | 99 | 1009.4 |
| 20260509020545 | 54 | 271 | 1.0 | 1.0 | 0.00 | 0.38 | 0.38 | 99 | 1009.5 |
| 20260509020042 | 54 | 280 | 1.0 | 1.0 | 0.00 | 0.38 | 0.38 | 99 | 1009.2 |
| 20260509015541 | 54 | 280 | 0.0 | 0.0 | 0.00 | 0.38 | 0.38 | 99 | 1009.3 |
| 20260509015038 | 54 | 274 | 1.0 | 1.0 | 0.00 | 0.38 | 0.38 | 99 | 1009.3 |
| 20260509014534 | 54 | 275 | 0.0 | 1.0 | 0.00 | 0.38 | 0.38 | 99 | 1009.4 |
| 20260509014030 | 54 | 277 | 0.0 | 0.0 | 0.00 | 0.38 | 0.38 | 99 | 1009.4 |
| 20260509013528 | 54 | 271 | 0.0 | 0.0 | 0.00 | 0.38 | 0.38 | 99 | 1009.5 |
| 20260509013023 | 54 | 259 | 0.0 | 1.0 | 0.00 | 0.38 | 0.38 | 99 | 1009.4 |
| 20260509012520 | 54 | 252 | 4.0 | 5.0 | 0.00 | 0.38 | 0.38 | 99 | 1009.2 |
| 20260509012017 | 54 | 252 | 2.0 | 3.0 | 0.00 | 0.38 | 0.38 | 99 | 1009.5 |
| 20260509011515 | 54 | 266 | 1.0 | 2.0 | 0.00 | 0.38 | 0.38 | 99 | 1009.3 |
| 20260509011012 | 54 | 243 | 4.0 | 5.0 | 0.00 | 0.38 | 0.38 | 99 | 1009.4 |
| 20260509010510 | 55 | 234 | 2.0 | 3.0 | 0.00 | 0.38 | 0.38 | 99 | 1009.4 |
| 20260509010006 | 55 | 252 | 3.0 | 3.0 | 0.00 | 0.38 | 0.38 | 99 | 1009.3 |
| 20260509005504 | 55 | 273 | 1.0 | 1.0 | 0.00 | 0.38 | 0.38 | 99 | 1009.5 |
| 20260509005004 | 55 | 268 | 2.0 | 3.0 | 0.00 | 0.38 | 0.38 | 99 | 1009.1 |
| 20260509004501 | 55 | 231 | 1.0 | 1.0 | 0.00 | 0.38 | 0.38 | 99 | 1009.2 |
| 20260509003958 | 55 | 276 | 0.0 | 0.0 | 0.00 | 0.38 | 0.38 | 99 | 1009.5 |
| 20260509003457 | 55 | 274 | 1.0 | 1.0 | 0.00 | 0.38 | 0.38 | 99 | 1009.3 |
| 20260509002953 | 55 | 280 | 3.0 | 3.0 | 0.00 | 0.38 | 0.38 | 99 | 1009.3 |
| 20260509002451 | 55 | 269 | 4.0 | 6.0 | 0.00 | 0.38 | 0.38 | 99 | 1009.6 |
| 20260509001948 | 55 | 270 | 1.0 | 2.0 | 0.00 | 0.38 | 0.38 | 99 | 1009.4 |
| 20260509001444 | 55 | 260 | 0.0 | 1.0 | 0.00 | 0.38 | 0.38 | 99 | 1009.2 |
| 20260509000941 | 55 | 273 | 0.0 | 0.0 | 0.00 | 0.38 | 0.38 | 99 | 1009.4 |
| 20260509000440 | 55 | 264 | 3.0 | 3.0 | 0.00 | 0.38 | 0.38 | 99 | 1009.3 |
| 20260508235935 | 55 | 251 | 3.0 | 3.0 | 0.00 | 0.38 | 0.38 | 99 | 1009.3 |
| 20260508235433 | 55 | 281 | 2.0 | 2.0 | 0.00 | 0.38 | 0.38 | 99 | 1009.2 |
| 20260508234929 | 55 | 251 | 5.0 | 7.0 | 0.00 | 0.38 | 0.38 | 99 | 1009.5 |
| 20260508234426 | 55 | 242 | 4.0 | 6.0 | 0.00 | 0.38 | 0.38 | 99 | 1009.5 |
| 20260508233924 | 55 | 267 | 0.0 | 1.0 | 0.00 | 0.38 | 0.38 | 99 | 1009.6 |
| 20260508233423 | 55 | 273 | 1.0 | 2.0 | 0.00 | 0.38 | 0.38 | 99 | 1009.6 |
| 20260508232919 | 55 | 268 | 0.0 | 0.0 | 0.00 | 0.38 | 0.38 | 99 | 1009.4 |
| 20260508232416 | 55 | 253 | 1.0 | 1.0 | 0.00 | 0.38 | 0.38 | 99 | 1009.5 |
| 20260508231914 | 55 | 245 | 3.0 | 3.0 | 0.00 | 0.38 | 0.38 | 99 | 1009.7 |
| 20260508231411 | 55 | 257 | 2.0 | 2.0 | 0.00 | 0.38 | 0.38 | 99 | 1009.3 |
| 20260508230908 | 55 | 257 | 2.0 | 3.0 | 0.00 | 0.38 | 0.38 | 99 | 1009.6 |
| 20260508230404 | 55 | 214 | 4.0 | 5.0 | 0.00 | 0.38 | 0.38 | 99 | 1009.5 |
| 20260508225856 | 55 | 277 | 2.0 | 2.0 | 0.00 | 0.38 | 0.38 | 99 | 1009.4 |
| 20260508225352 | 55 | 251 | 4.0 | 6.0 | 0.00 | 0.38 | 0.38 | 99 | 1009.7 |
| 20260508224850 | 55 | 238 | 3.0 | 3.0 | 0.00 | 0.38 | 0.38 | 99 | 1009.6 |
| 20260508224347 | 55 | 287 | 0.0 | 0.0 | 0.00 | 0.38 | 0.38 | 99 | 1009.7 |
| 20260508223845 | 55 | 284 | 1.0 | 1.0 | 0.00 | 0.38 | 0.38 | 99 | 1009.4 |
| 20260508223342 | 55 | 282 | 0.0 | 0.0 | 0.00 | 0.38 | 0.38 | 99 | 1009.4 |
| 20260508222840 | 55 | 264 | 3.0 | 3.0 | 0.00 | 0.38 | 0.38 | 99 | 1009.8 |
| 20260508222337 | 55 | 274 | 0.0 | 0.0 | 0.00 | 0.38 | 0.38 | 99 | 1010.0 |
| 20260508221833 | 54 | 274 | 0.0 | 0.0 | 0.00 | 0.38 | 0.38 | 99 | 1009.7 |
| 20260508221328 | 54 | 281 | 0.0 | 0.0 | 0.05 | 0.38 | 0.38 | 99 | 1009.6 |
| 20260508220825 | 54 | 282 | 0.0 | 0.0 | 0.05 | 0.38 | 0.38 | 99 | 1009.7 |
| 20260508220322 | 54 | 257 | 1.0 | 2.0 | 0.00 | 0.37 | 0.37 | 99 | 1009.5 |
| 20260508215819 | 54 | 284 | 0.0 | 0.0 | 0.00 | 0.37 | 0.37 | 99 | 1009.8 |
| 20260508215315 | 54 | 280 | 0.0 | 0.0 | 0.00 | 0.37 | 0.37 | 99 | 1009.7 |
| 20260508214812 | 54 | 280 | 2.0 | 2.0 | 0.00 | 0.37 | 0.37 | 99 | 1009.7 |
| 20260508214309 | 55 | 279 | 2.0 | 2.0 | 0.07 | 0.37 | 0.37 | 99 | 1009.8 |
| 20260508213806 | 55 | 285 | 0.0 | 0.0 | 0.07 | 0.37 | 0.37 | 99 | 1010.0 |
| 20260508213303 | 55 | 261 | 1.0 | 1.0 | 0.05 | 0.36 | 0.36 | 99 | 1010.1 |
| 20260508212759 | 55 | 267 | 0.0 | 1.0 | 0.05 | 0.36 | 0.36 | 99 | 1009.7 |
| 20260508212255 | 56 | 246 | 1.0 | 2.0 | 0.00 | 0.35 | 0.35 | 99 | 1010.1 |
| 20260508211751 | 56 | 286 | 1.0 | 2.0 | 0.00 | 0.35 | 0.35 | 99 | 1010.2 |
| 20260508211247 | 56 | 255 | 1.0 | 2.0 | 0.00 | 0.35 | 0.35 | 99 | 1010.1 |
| 20260508210745 | 56 | 260 | 1.0 | 2.0 | 0.00 | 0.35 | 0.35 | 99 | 1010.2 |
| 20260508210241 | 56 | 271 | 1.0 | 1.0 | 0.07 | 0.35 | 0.35 | 99 | 1010.2 |
| 20260508205738 | 56 | 257 | 1.0 | 1.0 | 0.12 | 0.35 | 0.35 | 99 | 1010.2 |
| 20260508205234 | 56 | 290 | 2.0 | 2.0 | 0.12 | 0.34 | 0.34 | 99 | 1010.3 |
| 20260508204731 | 56 | 280 | 1.0 | 1.0 | 0.14 | 0.33 | 0.33 | 99 | 1010.4 |
| 20260508204227 | 56 | 282 | 0.0 | 0.0 | 0.12 | 0.32 | 0.32 | 99 | 1010.5 |
| 20260508203723 | 56 | 281 | 0.0 | 0.0 | 0.12 | 0.31 | 0.31 | 99 | 1010.7 |
| 20260508203220 | 56 | 275 | 0.0 | 0.0 | 0.12 | 0.30 | 0.30 | 99 | 1010.7 |
| 20260508202716 | 56 | 282 | 0.0 | 0.0 | 0.12 | 0.30 | 0.30 | 99 | 1010.8 |
| 20260508202213 | 56 | 283 | 1.0 | 2.0 | 0.07 | 0.28 | 0.28 | 99 | 1010.5 |
| 20260508201710 | 56 | 283 | 0.0 | 0.0 | 0.19 | 0.28 | 0.28 | 99 | 1010.9 |
| 20260508201207 | 56 | 262 | 2.0 | 2.0 | 0.07 | 0.26 | 0.26 | 99 | 1010.9 |
| 20260508200704 | 56 | 290 | 2.0 | 2.0 | 0.05 | 0.25 | 0.25 | 99 | 1010.9 |
| 20260508200200 | 56 | 290 | 0.0 | 0.0 | 0.12 | 0.24 | 0.24 | 99 | 1010.8 |
| 20260508195656 | 55 | 293 | 2.0 | 2.0 | 0.12 | 0.23 | 0.23 | 99 | 1011.0 |
| 20260508195153 | 55 | 283 | 0.0 | 0.0 | 0.07 | 0.22 | 0.22 | 99 | 1011.2 |
| 20260508194649 | 55 | 280 | 2.0 | 2.0 | 0.31 | 0.21 | 0.21 | 99 | 1011.2 |
| 20260508194146 | 55 | 281 | 0.0 | 1.0 | 0.47 | 0.21 | 0.21 | 99 | 1011.0 |
| 20260508193643 | 56 | 292 | 1.0 | 1.0 | 0.19 | 0.15 | 0.15 | 99 | 1011.4 |
| 20260508193140 | 56 | 278 | 3.0 | 3.0 | 0.07 | 0.13 | 0.13 | 99 | 1011.3 |
| 20260508192637 | 56 | 279 | 1.0 | 1.0 | 0.17 | 0.12 | 0.12 | 98 | 1011.2 |
| 20260508192134 | 56 | 317 | 2.0 | 2.0 | 0.31 | 0.12 | 0.12 | 98 | 1011.2 |
| 20260508191631 | 56 | 284 | 2.0 | 2.0 | 0.19 | 0.09 | 0.09 | 97 | 1011.5 |
| 20260508191127 | 57 | 279 | 1.0 | 2.0 | 0.12 | 0.07 | 0.07 | 96 | 1011.4 |
| 20260508190625 | 57 | 280 | 1.0 | 1.0 | 0.07 | 0.06 | 0.06 | 94 | 1011.2 |
| 20260508190121 | 57 | 278 | 1.0 | 1.0 | 0.05 | 0.05 | 0.05 | 94 | 1011.5 |
| 20260508185618 | 57 | 291 | 2.0 | 2.0 | 0.07 | 0.04 | 0.04 | 92 | 1011.1 |
| 20260508185115 | 58 | 261 | 4.0 | 5.0 | 0.19 | 0.04 | 0.04 | 91 | 1011.3 |
| 20260508184613 | 61 | 293 | 7.0 | 11.0 | 0.12 | 0.03 | 0.03 | 84 | 1011.4 |
| 20260508184110 | 62 | 257 | 6.0 | 7.0 | 0.00 | 0.01 | 0.01 | 74 | 1011.0 |
| 20260508183606 | 62 | 283 | 3.0 | 5.0 | 0.00 | 0.01 | 0.01 | 75 | 1011.2 |
| 20260508183102 | 62 | 278 | 1.0 | 2.0 | 0.00 | 0.01 | 0.01 | 74 | 1011.0 |
| 20260508182559 | 63 | 282 | 4.0 | 6.0 | 0.00 | 0.01 | 0.01 | 73 | 1011.1 |
| 20260508182055 | 63 | 286 | 2.0 | 2.0 | 0.00 | 0.01 | 0.01 | 71 | 1011.1 |
| 20260508181555 | 64 | 274 | 4.0 | 6.0 | 0.00 | 0.01 | 0.01 | 70 | 1011.0 |
| 20260508181054 | 63 | 254 | 3.0 | 5.0 | 0.00 | 0.01 | 0.01 | 72 | 1011.2 |
| 20260508180550 | 63 | 280 | 2.0 | 2.0 | 0.00 | 0.01 | 0.01 | 71 | 1011.2 |
| 20260508180046 | 63 | 248 | 2.0 | 2.0 | 0.00 | 0.01 | 0.01 | 70 | 1011.4 |
| 20260508175543 | 62 | 279 | 2.0 | 3.0 | 0.00 | 0.01 | 0.01 | 71 | 1011.4 |
| 20260508175041 | 63 | 208 | 2.0 | 3.0 | 0.00 | 0.01 | 0.01 | 72 | 1011.3 |
| 20260508174538 | 62 | 282 | 1.0 | 1.0 | 0.00 | 0.01 | 0.01 | 73 | 1011.5 |
| 20260508174035 | 62 | 272 | 3.0 | 5.0 | 0.00 | 0.01 | 0.01 | 73 | 1011.5 |
| 20260508173532 | 62 | 297 | 3.0 | 3.0 | 0.00 | 0.01 | 0.01 | 74 | 1011.5 |
| 20260508173027 | 62 | 261 | 1.0 | 2.0 | 0.00 | 0.01 | 0.01 | 73 | 1011.8 |
| 20260508172525 | 62 | 273 | 1.0 | 1.0 | 0.00 | 0.01 | 0.01 | 73 | 1011.7 |
| 20260508172021 | 62 | 278 | 2.0 | 3.0 | 0.00 | 0.01 | 0.01 | 72 | 1011.9 |
| 20260508171518 | 62 | 286 | 1.0 | 2.0 | 0.00 | 0.01 | 0.01 | 73 | 1012.1 |
| 20260508171014 | 61 | 280 | 5.0 | 8.0 | 0.00 | 0.01 | 0.01 | 71 | 1012.0 |
| 20260508170512 | 61 | 238 | 3.0 | 5.0 | 0.00 | 0.01 | 0.01 | 72 | 1012.2 |
| 20260508170009 | 61 | 277 | 1.0 | 1.0 | 0.00 | 0.01 | 0.01 | 72 | 1012.2 |
| 20260508165507 | 61 | 239 | 1.0 | 2.0 | 0.00 | 0.01 | 0.01 | 72 | 1012.3 |
| 20260508165004 | 61 | 224 | 9.0 | 13.0 | 0.00 | 0.01 | 0.01 | 71 | 1012.4 |
| 20260508164459 | 60 | 277 | 2.0 | 3.0 | 0.00 | 0.01 | 0.01 | 72 | 1012.5 |
| 20260508163956 | 60 | 272 | 0.0 | 1.0 | 0.00 | 0.01 | 0.01 | 72 | 1012.6 |
| 20260508163454 | 60 | 215 | 5.0 | 6.0 | 0.00 | 0.01 | 0.01 | 71 | 1012.8 |
| 20260508162949 | 60 | 275 | 2.0 | 2.0 | 0.00 | 0.01 | 0.01 | 73 | 1013.0 |
| 20260508162447 | 60 | 281 | 3.0 | 3.0 | 0.00 | 0.01 | 0.01 | 74 | 1013.0 |
| 20260508161944 | 60 | 238 | 5.0 | 6.0 | 0.00 | 0.01 | 0.01 | 71 | 1013.1 |
| 20260508161441 | 60 | 211 | 5.0 | 7.0 | 0.00 | 0.01 | 0.01 | 71 | 1013.0 |
| 20260508160938 | 60 | 252 | 6.0 | 7.0 | 0.00 | 0.01 | 0.01 | 70 | 1013.0 |
| 20260508160438 | 61 | 201 | 3.0 | 5.0 | 0.00 | 0.01 | 0.01 | 70 | 1013.0 |
| 20260508155933 | 61 | 207 | 6.0 | 7.0 | 0.00 | 0.01 | 0.01 | 71 | 1012.7 |
| 20260508155430 | 61 | 250 | 6.0 | 9.0 | 0.00 | 0.01 | 0.01 | 70 | 1013.0 |
| 20260508154927 | 60 | 244 | 3.0 | 3.0 | 0.00 | 0.01 | 0.01 | 72 | 1013.1 |
| 20260508154425 | 61 | 271 | 4.0 | 5.0 | 0.00 | 0.01 | 0.01 | 72 | 1013.2 |
| 20260508153921 | 61 | 241 | 2.0 | 2.0 | 0.00 | 0.01 | 0.01 | 71 | 1013.2 |
| 20260508153418 | 62 | 267 | 2.0 | 3.0 | 0.00 | 0.01 | 0.01 | 73 | 1013.2 |
| 20260508152914 | 60 | 231 | 3.0 | 5.0 | 0.00 | 0.01 | 0.01 | 75 | 1013.0 |
| 20260508152411 | 60 | 313 | 4.0 | 6.0 | 0.00 | 0.01 | 0.01 | 73 | 1013.2 |
| 20260508151908 | 60 | 280 | 4.0 | 6.0 | 0.00 | 0.01 | 0.01 | 75 | 1013.3 |
| 20260508151404 | 58 | 289 | 2.0 | 3.0 | 0.00 | 0.01 | 0.01 | 75 | 1013.4 |
| 20260508150901 | 58 | 219 | 3.0 | 5.0 | 0.00 | 0.01 | 0.01 | 76 | 1013.6 |
| 20260508150357 | 58 | 247 | 2.0 | 3.0 | 0.00 | 0.01 | 0.01 | 78 | 1013.4 |
| 20260508145853 | 58 | 235 | 3.0 | 3.0 | 0.00 | 0.01 | 0.01 | 75 | 1013.4 |
| 20260508145350 | 56 | 283 | 2.0 | 2.0 | 0.00 | 0.01 | 0.01 | 78 | 1013.5 |
| 20260508144847 | 56 | 286 | 2.0 | 2.0 | 0.00 | 0.01 | 0.01 | 78 | 1013.6 |
| 20260508144345 | 57 | 302 | 2.0 | 2.0 | 0.00 | 0.01 | 0.01 | 78 | 1013.7 |
| 20260508143842 | 56 | 280 | 2.0 | 2.0 | 0.00 | 0.01 | 0.01 | 80 | 1013.6 |
| 20260508143339 | 55 | 262 | 2.0 | 2.0 | 0.00 | 0.01 | 0.01 | 81 | 1013.6 |
| 20260508142836 | 55 | 275 | 0.0 | 1.0 | 0.00 | 0.01 | 0.01 | 82 | 1013.8 |
| 20260508142332 | 54 | 261 | 2.0 | 2.0 | 0.00 | 0.01 | 0.01 | 84 | 1013.7 |
| 20260508141829 | 53 | 249 | 2.0 | 2.0 | 0.00 | 0.01 | 0.01 | 87 | 1013.9 |
| 20260508141326 | 52 | 274 | 1.0 | 1.0 | 0.00 | 0.01 | 0.01 | 87 | 1014.0 |
| 20260508140823 | 52 | 282 | 0.0 | 0.0 | 0.00 | 0.01 | 0.01 | 88 | 1014.0 |
| 20260508140320 | 52 | 281 | 0.0 | 0.0 | 0.05 | 0.01 | 0.01 | 87 | 1014.0 |
| 20260508135816 | 52 | 282 | 0.0 | 0.0 | 0.05 | 0.01 | 0.01 | 86 | 1014.0 |
| 20260508135313 | 53 | 273 | 0.0 | 0.0 | 0.00 | 0.00 | 0.00 | 85 | 1014.1 |
| 20260508134808 | 53 | 281 | 2.0 | 2.0 | 0.00 | 0.00 | 0.00 | 82 | 1014.3 |
| 20260508134305 | 53 | 281 | 0.0 | 1.0 | 0.00 | 0.00 | 0.00 | 82 | 1013.9 |
| 20260508133802 | 53 | 277 | 2.0 | 2.0 | 0.00 | 0.00 | 0.00 | 81 | 1013.8 |
| 20260508133300 | 54 | 269 | 1.0 | 1.0 | 0.00 | 0.00 | 0.00 | 82 | 1013.7 |
| 20260508132757 | 54 | 261 | 0.0 | 1.0 | 0.00 | 0.00 | 0.00 | 83 | 1013.7 |
| 20260508132254 | 53 | 263 | 3.0 | 3.0 | 0.00 | 0.00 | 0.00 | 83 | 1013.5 |
| 20260508131750 | 53 | 281 | 0.0 | 1.0 | 0.00 | 0.00 | 0.00 | 84 | 1013.5 |
| 20260508131247 | 52 | 217 | 3.0 | 5.0 | 0.00 | 0.00 | 0.00 | 85 | 1013.4 |
| 20260508130743 | 52 | 243 | 2.0 | 2.0 | 0.00 | 0.00 | 0.00 | 86 | 1013.7 |
| 20260508130241 | 51 | 212 | 3.0 | 3.0 | 0.00 | 0.00 | 0.00 | 87 | 1013.8 |
| 20260508125736 | 51 | 273 | 1.0 | 2.0 | 0.00 | 0.00 | 0.00 | 87 | 1013.8 |
| 20260508125232 | 51 | 283 | 0.0 | 0.0 | 0.00 | 0.00 | 0.00 | 89 | 1013.8 |
| 20260508124731 | 50 | 261 | 1.0 | 1.0 | 0.00 | 0.00 | 0.00 | 89 | 1013.6 |
| 20260508124228 | 50 | 283 | 0.0 | 1.0 | 0.00 | 0.00 | 0.00 | 90 | 1013.9 |
| 20260508123726 | 50 | 280 | 0.0 | 0.0 | 0.00 | 0.00 | 0.00 | 90 | 1013.9 |
| 20260508123224 | 50 | 259 | 1.0 | 1.0 | 0.00 | 0.00 | 0.00 | 91 | 1013.7 |
| 20260508122719 | 50 | 279 | 1.0 | 1.0 | 0.00 | 0.00 | 0.00 | 91 | 1013.8 |
| 20260508122217 | 50 | 274 | 1.0 | 1.0 | 0.00 | 0.00 | 0.00 | 91 | 1013.9 |
| 20260508121714 | 50 | 256 | 1.0 | 2.0 | 0.00 | 0.00 | 0.00 | 91 | 1014.0 |
| 20260508121213 | 50 | 281 | 0.0 | 0.0 | 0.00 | 0.00 | 0.00 | 91 | 1013.8 |
| 20260508120709 | 50 | 280 | 1.0 | 1.0 | 0.00 | 0.00 | 0.00 | 90 | 1013.9 |
| 20260508120208 | 50 | 283 | 0.0 | 0.0 | 0.00 | 0.00 | 0.00 | 90 | 1013.7 |
| 20260508115705 | 50 | 246 | 3.0 | 5.0 | 0.00 | 0.00 | 0.00 | 90 | 1013.5 |
| 20260508115202 | 50 | 272 | 1.0 | 1.0 | 0.00 | 0.00 | 0.00 | 90 | 1013.7 |
| 20260508114659 | 50 | 273 | 1.0 | 1.0 | 0.00 | 0.00 | 0.00 | 90 | 1013.4 |
| 20260508114155 | 50 | 273 | 2.0 | 3.0 | 0.00 | 0.00 | 0.00 | 89 | 1013.5 |
| 20260508113652 | 50 | 252 | 4.0 | 6.0 | 0.00 | 0.00 | 0.00 | 88 | 1013.5 |
| 20260508113151 | 50 | 266 | 3.0 | 6.0 | 0.00 | 0.00 | 0.00 | 88 | 1013.6 |
| 20260508112646 | 51 | 278 | 1.0 | 1.0 | 0.00 | 0.00 | 0.00 | 88 | 1013.5 |
| 20260508112143 | 51 | 283 | 0.0 | 1.0 | 0.00 | 0.00 | 0.00 | 87 | 1013.4 |
| 20260508111640 | 51 | 278 | 1.0 | 1.0 | 0.00 | 0.00 | 0.00 | 85 | 1013.3 |
| 20260508111137 | 51 | 236 | 1.0 | 2.0 | 0.00 | 0.00 | 0.00 | 85 | 1013.1 |
| 20260508110630 | 51 | 298 | 4.0 | 5.0 | 0.00 | 0.00 | 0.00 | 83 | 1013.2 |
| 20260508110125 | 52 | 251 | 7.0 | 10.0 | 0.00 | 0.00 | 0.00 | 80 | 1013.3 |
| 20260508105620 | 52 | 215 | 2.0 | 5.0 | 0.00 | 0.00 | 0.00 | 78 | 1013.2 |
| 20260508105117 | 52 | 292 | 2.0 | 2.0 | 0.00 | 0.00 | 0.00 | 78 | 1013.2 |
| 20260508104615 | 52 | 256 | 2.0 | 3.0 | 0.00 | 0.00 | 0.00 | 78 | 1013.4 |
| 20260508104111 | 52 | 225 | 1.0 | 3.0 | 0.00 | 0.00 | 0.00 | 78 | 1013.3 |
| 20260508103609 | 51 | 287 | 2.0 | 2.0 | 0.00 | 0.00 | 0.00 | 78 | 1013.1 |
| 20260508103106 | 52 | 267 | 2.0 | 2.0 | 0.00 | 0.00 | 0.00 | 80 | 1013.4 |
| 20260508102603 | 52 | 284 | 0.0 | 1.0 | 0.00 | 0.00 | 0.00 | 79 | 1013.1 |
| 20260508102101 | 52 | 289 | 3.0 | 3.0 | 0.00 | 0.00 | 0.00 | 80 | 1013.1 |
| 20260508101558 | 51 | 273 | 3.0 | 3.0 | 0.00 | 0.00 | 0.00 | 79 | 1013.0 |
| 20260508101055 | 51 | 279 | 1.0 | 1.0 | 0.00 | 0.00 | 0.00 | 80 | 1013.0 |
| 20260508100553 | 52 | 275 | 1.0 | 1.0 | 0.00 | 0.00 | 0.00 | 79 | 1013.0 |
| 20260508100050 | 52 | 210 | 3.0 | 6.0 | 0.00 | 0.00 | 0.00 | 79 | 1013.2 |
| 20260508095547 | 52 | 259 | 5.0 | 7.0 | 0.00 | 0.00 | 0.00 | 79 | 1013.3 |
| 20260508095044 | 52 | 296 | 4.0 | 9.0 | 0.00 | 0.00 | 0.00 | 79 | 1013.2 |
| 20260508094541 | 52 | 265 | 7.0 | 8.0 | 0.00 | 0.00 | 0.00 | 78 | 1013.1 |
| 20260508094038 | 52 | 250 | 3.0 | 5.0 | 0.00 | 0.00 | 0.00 | 78 | 1013.4 |
| 20260508093535 | 52 | 240 | 5.0 | 8.0 | 0.00 | 0.00 | 0.00 | 78 | 1013.3 |
| 20260508093033 | 52 | 277 | 2.0 | 3.0 | 0.00 | 0.00 | 0.00 | 79 | 1013.5 |
| 20260508092530 | 51 | 280 | 2.0 | 3.0 | 0.00 | 0.00 | 0.00 | 79 | 1013.6 |
| 20260508092029 | 51 | 273 | 3.0 | 3.0 | 0.00 | 0.00 | 0.00 | 81 | 1013.3 |
| 20260508091525 | 51 | 280 | 0.0 | 1.0 | 0.00 | 0.00 | 0.00 | 82 | 1013.4 |
| 20260508091022 | 50 | 265 | 2.0 | 2.0 | 0.00 | 0.00 | 0.00 | 84 | 1013.5 |
| 20260508090520 | 50 | 279 | 1.0 | 2.0 | 0.00 | 0.00 | 0.00 | 84 | 1013.3 |
| 20260508090016 | 50 | 256 | 1.0 | 2.0 | 0.00 | 0.00 | 0.00 | 85 | 1013.3 |
| 20260508085513 | 49 | 276 | 0.0 | 0.0 | 0.00 | 0.00 | 0.00 | 86 | 1013.2 |
| 20260508085010 | 49 | 274 | 0.0 | 1.0 | 0.00 | 0.00 | 0.00 | 86 | 1013.3 |
| 20260508084507 | 49 | 271 | 1.0 | 3.0 | 0.00 | 0.00 | 0.00 | 86 | 1013.3 |
| 20260508084004 | 49 | 279 | 1.0 | 1.0 | 0.00 | 0.00 | 0.00 | 85 | 1013.2 |
| 20260508083501 | 49 | 230 | 1.0 | 2.0 | 0.00 | 0.00 | 0.00 | 85 | 1013.4 |
| 20260508082956 | 49 | 253 | 3.0 | 5.0 | 0.00 | 0.00 | 0.00 | 84 | 1013.1 |
| 20260508082453 | 49 | 272 | 0.0 | 1.0 | 0.00 | 0.00 | 0.00 | 83 | 1013.0 |
| 20260508081952 | 49 | 279 | 0.0 | 0.0 | 0.00 | 0.00 | 0.00 | 83 | 1013.2 |
| 20260508081448 | 49 | 274 | 0.0 | 0.0 | 0.00 | 0.00 | 0.00 | 83 | 1013.3 |
| 20260508080944 | 50 | 239 | 1.0 | 2.0 | 0.00 | 0.00 | 0.00 | 82 | 1013.2 |
| 20260508080443 | 50 | 285 | 3.0 | 3.0 | 0.00 | 0.00 | 0.00 | 81 | 1013.3 |
| 20260508075939 | 50 | 280 | 0.0 | 0.0 | 0.00 | 0.00 | 0.00 | 81 | 1013.4 |
| 20260508075436 | 50 | 287 | 2.0 | 3.0 | 0.00 | 0.00 | 0.00 | 81 | 1013.4 |
| 20260508074934 | 50 | 314 | 2.0 | 2.0 | 0.00 | 0.00 | 0.00 | 81 | 1013.4 |
| 20260508074431 | 50 | 274 | 3.0 | 5.0 | 0.00 | 0.00 | 0.00 | 81 | 1013.5 |
| 20260508073927 | 50 | 253 | 2.0 | 3.0 | 0.00 | 0.00 | 0.00 | 81 | 1013.6 |
| 20260508073425 | 50 | 266 | 4.0 | 5.0 | 0.00 | 0.00 | 0.00 | 81 | 1013.4 |
| 20260508072922 | 50 | 224 | 5.0 | 7.0 | 0.00 | 0.00 | 0.00 | 82 | 1013.3 |
| 20260508072418 | 50 | 292 | 2.0 | 2.0 | 0.00 | 0.00 | 0.00 | 82 | 1013.4 |
| 20260508071916 | 49 | 256 | 2.0 | 2.0 | 0.00 | 0.00 | 0.00 | 82 | 1013.1 |
| 20260508071414 | 49 | 212 | 4.0 | 6.0 | 0.00 | 0.00 | 0.00 | 83 | 1013.3 |
| 20260508070911 | 49 | 267 | 1.0 | 1.0 | 0.00 | 0.00 | 0.00 | 82 | 1013.4 |
| 20260508070408 | 49 | 274 | 4.0 | 6.0 | 0.00 | 0.00 | 0.00 | 83 | 1013.4 |
| 20260508065906 | 49 | 268 | 2.0 | 2.0 | 0.00 | 0.00 | 0.00 | 83 | 1013.3 |
| 20260508065405 | 48 | 213 | 3.0 | 5.0 | 0.00 | 0.00 | 0.00 | 84 | 1013.4 |
| 20260508064902 | 48 | 255 | 1.0 | 3.0 | 0.00 | 0.00 | 0.00 | 85 | 1013.4 |
| 20260508064359 | 48 | 258 | 1.0 | 1.0 | 0.00 | 0.00 | 0.00 | 86 | 1013.6 |
| 20260508063857 | 48 | 288 | 0.0 | 0.0 | 0.00 | 0.00 | 0.00 | 86 | 1013.7 |
| 20260508063355 | 48 | 238 | 1.0 | 3.0 | 0.00 | 0.00 | 0.00 | 88 | 1013.6 |
| 20260508062852 | 47 | 248 | 2.0 | 2.0 | 0.00 | 0.00 | 0.00 | 89 | 1013.5 |
| 20260508062349 | 47 | 217 | 3.0 | 3.0 | 0.00 | 0.00 | 0.00 | 89 | 1013.6 |
| 20260508061846 | 47 | 269 | 1.0 | 1.0 | 0.00 | 0.00 | 0.00 | 89 | 1013.6 |
| 20260508061344 | 47 | 270 | 1.0 | 1.0 | 0.00 | 0.00 | 0.00 | 89 | 1013.6 |
| 20260508060839 | 47 | 264 | 1.0 | 1.0 | 0.00 | 0.00 | 0.00 | 89 | 1013.6 |
| 20260508060337 | 47 | 268 | 1.0 | 1.0 | 0.00 | 0.00 | 0.00 | 90 | 1013.6 |
| 20260508055832 | 47 | 271 | 1.0 | 1.0 | 0.00 | 0.00 | 0.00 | 90 | 1013.9 |
| 20260508055330 | 47 | 270 | 1.0 | 1.0 | 0.00 | 0.00 | 0.00 | 90 | 1013.7 |
| 20260508054826 | 47 | 273 | 0.0 | 1.0 | 0.00 | 0.00 | 0.00 | 90 | 1013.7 |
| 20260508054324 | 46 | 273 | 0.0 | 0.0 | 0.00 | 0.00 | 0.00 | 91 | 1014.0 |
| 20260508053821 | 46 | 277 | 0.0 | 0.0 | 0.00 | 0.00 | 0.00 | 91 | 1013.8 |
| 20260508053319 | 46 | 278 | 0.0 | 0.0 | 0.00 | 0.00 | 0.00 | 91 | 1013.8 |
| 20260508052816 | 46 | 278 | 0.0 | 0.0 | 0.00 | 0.00 | 0.00 | 90 | 1013.8 |
| 20260508052313 | 47 | 275 | 0.0 | 0.0 | 0.00 | 0.00 | 0.00 | 90 | 1014.0 |
| 20260508051809 | 47 | 269 | 1.0 | 1.0 | 0.00 | 0.00 | 0.00 | 90 | 1013.8 |
| 20260508051304 | 47 | 271 | 1.0 | 1.0 | 0.00 | 0.00 | 0.00 | 90 | 1014.0 |
| 20260508050801 | 47 | 277 | 0.0 | 0.0 | 0.00 | 0.00 | 0.00 | 90 | 1013.9 |
| 20260508050258 | 47 | 269 | 1.0 | 2.0 | 0.00 | 0.00 | 0.00 | 91 | 1013.6 |
| 20260508045754 | 47 | 270 | 0.0 | 0.0 | 0.00 | 0.00 | 0.00 | 91 | 1013.8 |
| 20260508045252 | 46 | 272 | 0.0 | 1.0 | 0.00 | 0.00 | 0.00 | 92 | 1013.9 |
| 20260508044749 | 46 | 269 | 1.0 | 1.0 | 0.00 | 0.00 | 0.00 | 92 | 1013.9 |
| 20260508044246 | 46 | 274 | 0.0 | 0.0 | 0.00 | 0.00 | 0.00 | 92 | 1014.0 |
| 20260508043742 | 46 | 278 | 0.0 | 0.0 | 0.00 | 0.00 | 0.00 | 92 | 1014.1 |
| 20260508043239 | 46 | 281 | 0.0 | 0.0 | 0.00 | 0.00 | 0.00 | 91 | 1014.0 |
| 20260508042736 | 46 | 275 | 0.0 | 0.0 | 0.00 | 0.00 | 0.00 | 91 | 1014.0 |
| 20260508042233 | 46 | 243 | 2.0 | 2.0 | 0.00 | 0.00 | 0.00 | 92 | 1013.8 |
| 20260508041730 | 46 | 276 | 0.0 | 0.0 | 0.00 | 0.00 | 0.00 | 91 | 1014.1 |
| 20260508041226 | 46 | 276 | 0.0 | 0.0 | 0.00 | 0.00 | 0.00 | 91 | 1014.1 |
| 20260508040723 | 46 | 283 | 0.0 | 0.0 | 0.00 | 0.00 | 0.00 | 90 | 1013.9 |
| 20260508040220 | 47 | 284 | 0.0 | 0.0 | 0.00 | 0.00 | 0.00 | 89 | 1014.1 |
| 20260508035717 | 47 | 284 | 0.0 | 0.0 | 0.00 | 0.00 | 0.00 | 89 | 1013.8 |
| 20260508035215 | 48 | 273 | 0.0 | 0.0 | 0.00 | 0.00 | 0.00 | 89 | 1014.1 |
| 20260508034711 | 48 | 279 | 0.0 | 0.0 | 0.00 | 0.00 | 0.00 | 88 | 1014.1 |
| 20260508034209 | 48 | 280 | 0.0 | 0.0 | 0.00 | 0.00 | 0.00 | 87 | 1014.2 |